METAR Data
IDs: Format: Raw Decoded Include TAF

Data at: 1317 UTC 26 Feb 2021

LSZH 261250Z 27004KT 240V300 CAVOK 15/01 Q1029 NOSIG